sensor_id;sensor_type;location;lat;lon;timestamp;P1;durP1;ratioP1;P2;durP2;ratioP2
38312;SDS011;24114;52.260;6.714;2022-12-07T00:00:55;8.27;;;6.90;;
38312;SDS011;24114;52.260;6.714;2022-12-07T00:03:24;7.45;;;6.45;;
38312;SDS011;24114;52.260;6.714;2022-12-07T00:05:51;8.10;;;6.63;;
38312;SDS011;24114;52.260;6.714;2022-12-07T00:08:19;6.78;;;5.82;;
38312;SDS011;24114;52.260;6.714;2022-12-07T00:10:47;9.70;;;6.30;;
38312;SDS011;24114;52.260;6.714;2022-12-07T00:13:15;7.38;;;5.32;;
38312;SDS011;24114;52.260;6.714;2022-12-07T00:15:44;5.80;;;5.28;;
38312;SDS011;24114;52.260;6.714;2022-12-07T00:18:11;6.72;;;5.00;;
38312;SDS011;24114;52.260;6.714;2022-12-07T00:20:39;5.97;;;5.27;;
38312;SDS011;24114;52.260;6.714;2022-12-07T00:23:07;6.20;;;5.20;;
38312;SDS011;24114;52.260;6.714;2022-12-07T00:25:35;7.53;;;5.88;;
38312;SDS011;24114;52.260;6.714;2022-12-07T00:28:03;5.80;;;4.93;;
38312;SDS011;24114;52.260;6.714;2022-12-07T00:30:31;5.63;;;4.30;;
38312;SDS011;24114;52.260;6.714;2022-12-07T00:33:00;7.13;;;4.50;;
38312;SDS011;24114;52.260;6.714;2022-12-07T00:35:28;5.70;;;4.00;;
38312;SDS011;24114;52.260;6.714;2022-12-07T00:37:56;5.90;;;4.23;;
38312;SDS011;24114;52.260;6.714;2022-12-07T00:40:23;7.05;;;4.20;;
38312;SDS011;24114;52.260;6.714;2022-12-07T00:42:51;7.68;;;5.13;;
38312;SDS011;24114;52.260;6.714;2022-12-07T00:45:19;6.17;;;4.90;;
38312;SDS011;24114;52.260;6.714;2022-12-07T00:47:47;6.03;;;5.40;;
38312;SDS011;24114;52.260;6.714;2022-12-07T00:50:16;7.05;;;5.40;;
38312;SDS011;24114;52.260;6.714;2022-12-07T00:52:44;7.35;;;5.45;;
38312;SDS011;24114;52.260;6.714;2022-12-07T00:55:11;8.20;;;5.38;;
38312;SDS011;24114;52.260;6.714;2022-12-07T00:57:39;8.50;;;5.50;;
38312;SDS011;24114;52.260;6.714;2022-12-07T01:00:07;7.10;;;4.95;;
38312;SDS011;24114;52.260;6.714;2022-12-07T01:02:35;4.50;;;4.03;;
38312;SDS011;24114;52.260;6.714;2022-12-07T01:05:03;5.30;;;4.30;;
38312;SDS011;24114;52.260;6.714;2022-12-07T01:07:33;5.28;;;4.13;;
38312;SDS011;24114;52.260;6.714;2022-12-07T01:10:01;6.05;;;3.90;;
38312;SDS011;24114;52.260;6.714;2022-12-07T01:12:29;5.88;;;3.58;;
38312;SDS011;24114;52.260;6.714;2022-12-07T01:14:57;6.70;;;4.20;;
38312;SDS011;24114;52.260;6.714;2022-12-07T01:17:25;6.45;;;3.75;;
38312;SDS011;24114;52.260;6.714;2022-12-07T01:19:53;5.65;;;3.50;;
38312;SDS011;24114;52.260;6.714;2022-12-07T01:22:20;6.00;;;4.50;;
38312;SDS011;24114;52.260;6.714;2022-12-07T01:24:49;5.88;;;3.75;;
38312;SDS011;24114;52.260;6.714;2022-12-07T01:27:17;5.57;;;3.55;;
38312;SDS011;24114;52.260;6.714;2022-12-07T01:29:45;6.37;;;3.53;;
38312;SDS011;24114;52.260;6.714;2022-12-07T01:32:13;4.57;;;3.65;;
38312;SDS011;24114;52.260;6.714;2022-12-07T01:34:40;5.53;;;3.25;;
38312;SDS011;24114;52.260;6.714;2022-12-07T01:37:08;5.27;;;3.33;;
38312;SDS011;24114;52.260;6.714;2022-12-07T01:39:36;4.90;;;3.20;;
38312;SDS011;24114;52.260;6.714;2022-12-07T01:42:05;8.55;;;3.22;;
38312;SDS011;24114;52.260;6.714;2022-12-07T01:47:36;6.03;;;3.00;;
38312;SDS011;24114;52.260;6.714;2022-12-07T01:50:04;5.22;;;2.90;;
38312;SDS011;24114;52.260;6.714;2022-12-07T01:52:33;5.72;;;3.15;;
38312;SDS011;24114;52.260;6.714;2022-12-07T01:55:02;5.05;;;3.00;;
38312;SDS011;24114;52.260;6.714;2022-12-07T01:57:34;4.70;;;2.75;;
38312;SDS011;24114;52.260;6.714;2022-12-07T02:00:04;7.07;;;2.72;;
38312;SDS011;24114;52.260;6.714;2022-12-07T02:02:34;5.03;;;2.50;;
38312;SDS011;24114;52.260;6.714;2022-12-07T02:05:04;3.88;;;2.47;;
38312;SDS011;24114;52.260;6.714;2022-12-07T02:07:33;6.13;;;2.67;;
38312;SDS011;24114;52.260;6.714;2022-12-07T02:10:11;6.38;;;2.95;;
38312;SDS011;24114;52.260;6.714;2022-12-07T02:12:41;7.45;;;3.30;;
38312;SDS011;24114;52.260;6.714;2022-12-07T02:15:11;5.90;;;2.90;;
38312;SDS011;24114;52.260;6.714;2022-12-07T02:17:42;4.55;;;2.50;;
38312;SDS011;24114;52.260;6.714;2022-12-07T02:20:17;5.03;;;2.50;;
38312;SDS011;24114;52.260;6.714;2022-12-07T02:23:03;8.48;;;3.30;;
38312;SDS011;24114;52.260;6.714;2022-12-07T02:25:44;9.18;;;2.70;;
38312;SDS011;24114;52.260;6.714;2022-12-07T02:28:34;5.60;;;2.75;;
38312;SDS011;24114;52.260;6.714;2022-12-07T02:31:06;6.07;;;2.83;;
38312;SDS011;24114;52.260;6.714;2022-12-07T02:33:40;5.47;;;2.30;;
38312;SDS011;24114;52.260;6.714;2022-12-07T02:36:10;5.68;;;2.70;;
38312;SDS011;24114;52.260;6.714;2022-12-07T02:38:43;5.53;;;2.50;;
38312;SDS011;24114;52.260;6.714;2022-12-07T02:41:15;5.60;;;2.30;;
38312;SDS011;24114;52.260;6.714;2022-12-07T02:43:45;4.00;;;2.40;;
38312;SDS011;24114;52.260;6.714;2022-12-07T02:46:18;6.38;;;2.30;;
38312;SDS011;24114;52.260;6.714;2022-12-07T02:48:49;5.70;;;2.58;;
38312;SDS011;24114;52.260;6.714;2022-12-07T02:51:38;5.83;;;2.53;;
38312;SDS011;24114;52.260;6.714;2022-12-07T02:54:08;6.22;;;2.03;;
38312;SDS011;24114;52.260;6.714;2022-12-07T02:56:39;6.15;;;2.35;;
38312;SDS011;24114;52.260;6.714;2022-12-07T02:59:14;5.75;;;2.05;;
38312;SDS011;24114;52.260;6.714;2022-12-07T03:01:49;5.83;;;1.77;;
38312;SDS011;24114;52.260;6.714;2022-12-07T03:04:23;5.20;;;2.00;;
38312;SDS011;24114;52.260;6.714;2022-12-07T03:07:00;6.85;;;1.83;;
38312;SDS011;24114;52.260;6.714;2022-12-07T03:09:32;5.13;;;1.63;;
38312;SDS011;24114;52.260;6.714;2022-12-07T03:12:06;7.30;;;2.35;;
38312;SDS011;24114;52.260;6.714;2022-12-07T03:14:38;5.75;;;1.95;;
38312;SDS011;24114;52.260;6.714;2022-12-07T03:17:10;4.35;;;1.70;;
38312;SDS011;24114;52.260;6.714;2022-12-07T03:19:40;5.47;;;1.58;;
38312;SDS011;24114;52.260;6.714;2022-12-07T03:22:09;5.32;;;1.63;;
38312;SDS011;24114;52.260;6.714;2022-12-07T03:24:39;3.75;;;1.40;;
38312;SDS011;24114;52.260;6.714;2022-12-07T03:27:09;6.75;;;1.63;;
38312;SDS011;24114;52.260;6.714;2022-12-07T03:29:41;5.55;;;1.40;;
38312;SDS011;24114;52.260;6.714;2022-12-07T03:32:14;6.57;;;1.57;;
38312;SDS011;24114;52.260;6.714;2022-12-07T03:34:44;4.73;;;1.53;;
38312;SDS011;24114;52.260;6.714;2022-12-07T03:37:14;6.47;;;1.33;;
38312;SDS011;24114;52.260;6.714;2022-12-07T03:39:46;5.83;;;1.30;;
38312;SDS011;24114;52.260;6.714;2022-12-07T03:42:19;4.57;;;1.10;;
38312;SDS011;24114;52.260;6.714;2022-12-07T03:44:46;5.00;;;1.38;;
38312;SDS011;24114;52.260;6.714;2022-12-07T03:47:18;5.88;;;1.48;;
38312;SDS011;24114;52.260;6.714;2022-12-07T03:49:54;6.47;;;1.20;;
38312;SDS011;24114;52.260;6.714;2022-12-07T03:52:24;6.03;;;1.30;;
38312;SDS011;24114;52.260;6.714;2022-12-07T03:54:55;5.18;;;1.30;;
38312;SDS011;24114;52.260;6.714;2022-12-07T03:57:26;5.05;;;1.20;;
38312;SDS011;24114;52.260;6.714;2022-12-07T03:59:55;6.78;;;1.23;;
38312;SDS011;24114;52.260;6.714;2022-12-07T04:02:25;5.63;;;1.20;;
38312;SDS011;24114;52.260;6.714;2022-12-07T04:04:54;7.70;;;1.77;;
38312;SDS011;24114;52.260;6.714;2022-12-07T04:07:22;5.20;;;1.20;;
38312;SDS011;24114;52.260;6.714;2022-12-07T04:09:50;6.80;;;1.20;;
38312;SDS011;24114;52.260;6.714;2022-12-07T04:12:17;5.50;;;1.38;;
38312;SDS011;24114;52.260;6.714;2022-12-07T04:14:45;6.63;;;1.10;;
38312;SDS011;24114;52.260;6.714;2022-12-07T04:17:13;5.22;;;1.30;;
38312;SDS011;24114;52.260;6.714;2022-12-07T04:19:42;4.90;;;1.08;;
38312;SDS011;24114;52.260;6.714;2022-12-07T04:22:10;4.97;;;1.00;;
38312;SDS011;24114;52.260;6.714;2022-12-07T04:24:38;5.72;;;1.25;;
38312;SDS011;24114;52.260;6.714;2022-12-07T04:27:06;4.88;;;1.17;;
38312;SDS011;24114;52.260;6.714;2022-12-07T04:29:33;5.38;;;0.85;;
38312;SDS011;24114;52.260;6.714;2022-12-07T04:32:01;5.18;;;0.95;;
38312;SDS011;24114;52.260;6.714;2022-12-07T04:34:29;5.33;;;0.90;;
38312;SDS011;24114;52.260;6.714;2022-12-07T04:36:58;4.00;;;0.70;;
38312;SDS011;24114;52.260;6.714;2022-12-07T04:39:26;4.97;;;0.90;;
38312;SDS011;24114;52.260;6.714;2022-12-07T04:41:55;6.60;;;1.10;;
38312;SDS011;24114;52.260;6.714;2022-12-07T04:44:24;3.95;;;0.90;;
38312;SDS011;24114;52.260;6.714;2022-12-07T04:46:52;4.30;;;0.70;;
38312;SDS011;24114;52.260;6.714;2022-12-07T04:49:21;5.00;;;0.73;;
38312;SDS011;24114;52.260;6.714;2022-12-07T04:51:48;7.60;;;0.80;;
38312;SDS011;24114;52.260;6.714;2022-12-07T04:54:18;4.13;;;0.45;;
38312;SDS011;24114;52.260;6.714;2022-12-07T04:56:46;4.70;;;0.67;;
38312;SDS011;24114;52.260;6.714;2022-12-07T04:59:14;4.05;;;0.88;;
38312;SDS011;24114;52.260;6.714;2022-12-07T05:01:42;5.72;;;0.60;;
38312;SDS011;24114;52.260;6.714;2022-12-07T05:04:10;5.53;;;0.90;;
38312;SDS011;24114;52.260;6.714;2022-12-07T05:06:38;4.60;;;0.90;;
38312;SDS011;24114;52.260;6.714;2022-12-07T05:09:05;5.20;;;0.70;;
38312;SDS011;24114;52.260;6.714;2022-12-07T05:11:35;4.18;;;1.00;;
38312;SDS011;24114;52.260;6.714;2022-12-07T05:14:06;7.97;;;1.20;;
38312;SDS011;24114;52.260;6.714;2022-12-07T05:16:36;6.43;;;1.08;;
38312;SDS011;24114;52.260;6.714;2022-12-07T05:19:05;5.07;;;1.00;;
38312;SDS011;24114;52.260;6.714;2022-12-07T05:21:33;5.28;;;0.90;;
38312;SDS011;24114;52.260;6.714;2022-12-07T05:24:01;6.03;;;1.08;;
38312;SDS011;24114;52.260;6.714;2022-12-07T05:26:29;4.45;;;0.90;;
38312;SDS011;24114;52.260;6.714;2022-12-07T05:28:58;4.85;;;0.82;;
38312;SDS011;24114;52.260;6.714;2022-12-07T05:31:26;7.53;;;1.00;;
38312;SDS011;24114;52.260;6.714;2022-12-07T05:33:54;3.85;;;1.13;;
38312;SDS011;24114;52.260;6.714;2022-12-07T05:36:22;4.53;;;1.00;;
38312;SDS011;24114;52.260;6.714;2022-12-07T05:38:50;5.80;;;0.80;;
38312;SDS011;24114;52.260;6.714;2022-12-07T05:41:18;7.67;;;1.10;;
38312;SDS011;24114;52.260;6.714;2022-12-07T05:44:05;8.82;;;1.60;;
38312;SDS011;24114;52.260;6.714;2022-12-07T05:46:33;5.20;;;1.25;;
38312;SDS011;24114;52.260;6.714;2022-12-07T05:49:00;6.20;;;1.00;;
38312;SDS011;24114;52.260;6.714;2022-12-07T05:51:28;5.40;;;1.10;;
38312;SDS011;24114;52.260;6.714;2022-12-07T05:53:56;5.70;;;1.00;;
38312;SDS011;24114;52.260;6.714;2022-12-07T05:56:24;5.13;;;0.80;;
38312;SDS011;24114;52.260;6.714;2022-12-07T05:58:52;5.68;;;1.00;;
38312;SDS011;24114;52.260;6.714;2022-12-07T06:01:39;5.13;;;0.90;;
38312;SDS011;24114;52.260;6.714;2022-12-07T06:04:07;5.17;;;1.03;;
38312;SDS011;24114;52.260;6.714;2022-12-07T06:06:36;8.45;;;1.27;;
38312;SDS011;24114;52.260;6.714;2022-12-07T06:09:04;3.17;;;0.87;;
38312;SDS011;24114;52.260;6.714;2022-12-07T06:11:32;6.95;;;1.30;;
38312;SDS011;24114;52.260;6.714;2022-12-07T06:14:17;5.15;;;0.77;;
38312;SDS011;24114;52.260;6.714;2022-12-07T06:16:46;4.88;;;1.00;;
38312;SDS011;24114;52.260;6.714;2022-12-07T06:19:15;5.82;;;0.88;;
38312;SDS011;24114;52.260;6.714;2022-12-07T06:21:42;5.95;;;0.80;;
38312;SDS011;24114;52.260;6.714;2022-12-07T06:24:11;6.32;;;0.80;;
38312;SDS011;24114;52.260;6.714;2022-12-07T06:26:39;6.43;;;0.80;;
38312;SDS011;24114;52.260;6.714;2022-12-07T06:29:07;6.53;;;1.10;;
38312;SDS011;24114;52.260;6.714;2022-12-07T06:31:35;6.03;;;1.17;;
38312;SDS011;24114;52.260;6.714;2022-12-07T06:34:06;6.30;;;0.97;;
38312;SDS011;24114;52.260;6.714;2022-12-07T06:36:34;5.70;;;1.17;;
38312;SDS011;24114;52.260;6.714;2022-12-07T06:39:02;6.07;;;1.03;;
38312;SDS011;24114;52.260;6.714;2022-12-07T06:41:30;6.70;;;1.23;;
38312;SDS011;24114;52.260;6.714;2022-12-07T06:43:58;4.03;;;0.90;;
38312;SDS011;24114;52.260;6.714;2022-12-07T06:46:26;5.25;;;1.55;;
38312;SDS011;24114;52.260;6.714;2022-12-07T06:48:53;5.82;;;1.20;;
38312;SDS011;24114;52.260;6.714;2022-12-07T06:51:23;7.17;;;1.50;;
38312;SDS011;24114;52.260;6.714;2022-12-07T06:53:50;7.07;;;1.10;;
38312;SDS011;24114;52.260;6.714;2022-12-07T06:56:18;5.43;;;0.98;;
38312;SDS011;24114;52.260;6.714;2022-12-07T06:58:46;5.47;;;0.70;;
38312;SDS011;24114;52.260;6.714;2022-12-07T07:01:14;5.88;;;1.50;;
38312;SDS011;24114;52.260;6.714;2022-12-07T07:03:44;5.18;;;1.30;;
38312;SDS011;24114;52.260;6.714;2022-12-07T07:06:13;5.60;;;1.60;;
38312;SDS011;24114;52.260;6.714;2022-12-07T07:08:42;5.40;;;1.40;;
38312;SDS011;24114;52.260;6.714;2022-12-07T07:11:10;4.50;;;1.23;;
38312;SDS011;24114;52.260;6.714;2022-12-07T07:13:38;6.85;;;1.80;;
38312;SDS011;24114;52.260;6.714;2022-12-07T07:16:06;7.43;;;2.10;;
38312;SDS011;24114;52.260;6.714;2022-12-07T07:18:34;7.72;;;2.30;;
38312;SDS011;24114;52.260;6.714;2022-12-07T07:21:02;7.75;;;1.83;;
38312;SDS011;24114;52.260;6.714;2022-12-07T07:23:30;6.03;;;1.40;;
38312;SDS011;24114;52.260;6.714;2022-12-07T07:25:59;8.15;;;1.95;;
38312;SDS011;24114;52.260;6.714;2022-12-07T07:28:27;6.82;;;1.38;;
38312;SDS011;24114;52.260;6.714;2022-12-07T07:30:55;6.43;;;1.17;;
38312;SDS011;24114;52.260;6.714;2022-12-07T07:33:23;7.05;;;1.52;;
38312;SDS011;24114;52.260;6.714;2022-12-07T07:35:50;4.95;;;1.27;;
38312;SDS011;24114;52.260;6.714;2022-12-07T07:38:18;7.68;;;1.35;;
38312;SDS011;24114;52.260;6.714;2022-12-07T07:40:46;7.63;;;1.23;;
38312;SDS011;24114;52.260;6.714;2022-12-07T07:43:16;6.93;;;1.30;;
38312;SDS011;24114;52.260;6.714;2022-12-07T07:45:44;6.80;;;1.50;;
38312;SDS011;24114;52.260;6.714;2022-12-07T07:48:12;7.13;;;1.42;;
38312;SDS011;24114;52.260;6.714;2022-12-07T07:50:39;5.30;;;1.07;;
38312;SDS011;24114;52.260;6.714;2022-12-07T07:53:07;7.68;;;1.52;;
38312;SDS011;24114;52.260;6.714;2022-12-07T07:55:35;5.32;;;1.70;;
38312;SDS011;24114;52.260;6.714;2022-12-07T07:58:03;8.07;;;1.92;;
38312;SDS011;24114;52.260;6.714;2022-12-07T08:00:32;5.93;;;1.25;;
38312;SDS011;24114;52.260;6.714;2022-12-07T08:02:59;5.28;;;1.30;;
38312;SDS011;24114;52.260;6.714;2022-12-07T08:05:27;5.43;;;1.55;;
38312;SDS011;24114;52.260;6.714;2022-12-07T08:07:55;8.20;;;2.45;;
38312;SDS011;24114;52.260;6.714;2022-12-07T08:10:24;11.05;;;3.20;;
38312;SDS011;24114;52.260;6.714;2022-12-07T08:12:52;11.07;;;4.72;;
38312;SDS011;24114;52.260;6.714;2022-12-07T08:15:42;9.30;;;4.90;;
38312;SDS011;24114;52.260;6.714;2022-12-07T08:18:11;11.25;;;5.28;;
38312;SDS011;24114;52.260;6.714;2022-12-07T08:20:39;8.15;;;4.20;;
38312;SDS011;24114;52.260;6.714;2022-12-07T08:23:08;9.25;;;3.08;;
38312;SDS011;24114;52.260;6.714;2022-12-07T08:25:37;9.07;;;2.50;;
38312;SDS011;24114;52.260;6.714;2022-12-07T08:28:05;8.05;;;1.98;;
38312;SDS011;24114;52.260;6.714;2022-12-07T08:30:33;7.32;;;1.27;;
38312;SDS011;24114;52.260;6.714;2022-12-07T08:33:02;5.47;;;1.35;;
38312;SDS011;24114;52.260;6.714;2022-12-07T08:35:32;6.82;;;1.63;;
38312;SDS011;24114;52.260;6.714;2022-12-07T08:38:00;7.72;;;1.20;;
38312;SDS011;24114;52.260;6.714;2022-12-07T08:40:28;8.55;;;1.80;;
38312;SDS011;24114;52.260;6.714;2022-12-07T08:42:56;6.93;;;1.48;;
38312;SDS011;24114;52.260;6.714;2022-12-07T08:45:24;6.72;;;1.40;;
38312;SDS011;24114;52.260;6.714;2022-12-07T08:47:54;5.03;;;1.13;;
38312;SDS011;24114;52.260;6.714;2022-12-07T08:50:26;4.75;;;1.05;;
38312;SDS011;24114;52.260;6.714;2022-12-07T08:52:55;5.18;;;1.00;;
38312;SDS011;24114;52.260;6.714;2022-12-07T08:55:24;4.25;;;0.90;;
38312;SDS011;24114;52.260;6.714;2022-12-07T08:57:52;7.17;;;1.53;;
38312;SDS011;24114;52.260;6.714;2022-12-07T09:00:20;7.18;;;1.20;;
38312;SDS011;24114;52.260;6.714;2022-12-07T09:02:48;6.45;;;1.15;;
38312;SDS011;24114;52.260;6.714;2022-12-07T09:05:15;5.50;;;1.00;;
38312;SDS011;24114;52.260;6.714;2022-12-07T09:07:45;5.50;;;1.10;;
38312;SDS011;24114;52.260;6.714;2022-12-07T09:10:14;6.28;;;0.88;;
38312;SDS011;24114;52.260;6.714;2022-12-07T09:12:42;4.30;;;0.80;;
38312;SDS011;24114;52.260;6.714;2022-12-07T09:15:10;6.03;;;1.60;;
38312;SDS011;24114;52.260;6.714;2022-12-07T09:17:38;6.68;;;1.08;;
38312;SDS011;24114;52.260;6.714;2022-12-07T09:20:06;6.53;;;1.23;;
38312;SDS011;24114;52.260;6.714;2022-12-07T09:22:34;7.95;;;1.50;;
38312;SDS011;24114;52.260;6.714;2022-12-07T09:25:03;7.28;;;1.13;;
38312;SDS011;24114;52.260;6.714;2022-12-07T09:27:32;6.50;;;1.17;;
38312;SDS011;24114;52.260;6.714;2022-12-07T09:29:59;4.40;;;0.93;;
38312;SDS011;24114;52.260;6.714;2022-12-07T09:32:28;5.88;;;1.10;;
38312;SDS011;24114;52.260;6.714;2022-12-07T09:34:56;6.97;;;1.48;;
38312;SDS011;24114;52.260;6.714;2022-12-07T09:37:23;6.07;;;1.05;;
38312;SDS011;24114;52.260;6.714;2022-12-07T09:39:51;5.40;;;1.55;;
38312;SDS011;24114;52.260;6.714;2022-12-07T09:42:25;5.38;;;1.50;;
38312;SDS011;24114;52.260;6.714;2022-12-07T09:44:55;5.43;;;1.20;;
38312;SDS011;24114;52.260;6.714;2022-12-07T09:47:24;7.33;;;0.90;;
38312;SDS011;24114;52.260;6.714;2022-12-07T09:49:52;6.82;;;2.20;;
38312;SDS011;24114;52.260;6.714;2022-12-07T09:52:24;4.60;;;1.00;;
38312;SDS011;24114;52.260;6.714;2022-12-07T09:54:53;5.35;;;1.08;;
38312;SDS011;24114;52.260;6.714;2022-12-07T09:57:22;6.18;;;1.25;;
38312;SDS011;24114;52.260;6.714;2022-12-07T09:59:55;7.22;;;1.10;;
38312;SDS011;24114;52.260;6.714;2022-12-07T10:02:34;5.97;;;1.42;;
38312;SDS011;24114;52.260;6.714;2022-12-07T10:05:04;6.32;;;1.85;;
38312;SDS011;24114;52.260;6.714;2022-12-07T10:07:33;5.55;;;1.70;;
38312;SDS011;24114;52.260;6.714;2022-12-07T10:10:02;4.80;;;1.10;;
38312;SDS011;24114;52.260;6.714;2022-12-07T10:12:32;5.25;;;1.20;;
38312;SDS011;24114;52.260;6.714;2022-12-07T10:15:20;6.65;;;1.17;;
38312;SDS011;24114;52.260;6.714;2022-12-07T10:17:49;5.97;;;1.38;;
38312;SDS011;24114;52.260;6.714;2022-12-07T10:20:19;5.40;;;1.10;;
38312;SDS011;24114;52.260;6.714;2022-12-07T10:23:00;4.40;;;1.30;;
38312;SDS011;24114;52.260;6.714;2022-12-07T10:25:29;6.47;;;0.93;;
38312;SDS011;24114;52.260;6.714;2022-12-07T10:28:02;3.75;;;0.93;;
38312;SDS011;24114;52.260;6.714;2022-12-07T10:30:48;8.43;;;1.33;;
38312;SDS011;24114;52.260;6.714;2022-12-07T10:33:28;4.68;;;1.38;;
38312;SDS011;24114;52.260;6.714;2022-12-07T10:36:16;4.35;;;1.15;;
38312;SDS011;24114;52.260;6.714;2022-12-07T10:38:46;5.40;;;1.45;;
38312;SDS011;24114;52.260;6.714;2022-12-07T10:41:15;2.75;;;0.70;;
38312;SDS011;24114;52.260;6.714;2022-12-07T10:43:50;3.65;;;0.75;;
38312;SDS011;24114;52.260;6.714;2022-12-07T10:49:28;5.20;;;1.20;;
38312;SDS011;24114;52.260;6.714;2022-12-07T10:52:06;4.90;;;1.40;;
38312;SDS011;24114;52.260;6.714;2022-12-07T10:54:39;3.83;;;0.82;;
38312;SDS011;24114;52.260;6.714;2022-12-07T10:57:19;5.30;;;0.82;;
38312;SDS011;24114;52.260;6.714;2022-12-07T10:59:55;9.65;;;1.73;;
38312;SDS011;24114;52.260;6.714;2022-12-07T11:05:27;5.47;;;1.50;;
38312;SDS011;24114;52.260;6.714;2022-12-07T11:08:00;5.00;;;1.25;;
38312;SDS011;24114;52.260;6.714;2022-12-07T11:10:34;4.87;;;1.10;;
38312;SDS011;24114;52.260;6.714;2022-12-07T11:13:19;4.35;;;0.80;;
38312;SDS011;24114;52.260;6.714;2022-12-07T11:15:59;2.25;;;0.70;;
38312;SDS011;24114;52.260;6.714;2022-12-07T11:18:32;4.55;;;0.73;;
38312;SDS011;24114;52.260;6.714;2022-12-07T11:21:04;4.75;;;0.80;;
38312;SDS011;24114;52.260;6.714;2022-12-07T11:23:40;3.95;;;0.45;;
38312;SDS011;24114;52.260;6.714;2022-12-07T11:26:14;3.97;;;0.73;;
38312;SDS011;24114;52.260;6.714;2022-12-07T11:28:53;4.90;;;0.90;;
38312;SDS011;24114;52.260;6.714;2022-12-07T11:31:33;4.90;;;1.10;;
38312;SDS011;24114;52.260;6.714;2022-12-07T11:34:05;5.63;;;0.93;;
38312;SDS011;24114;52.260;6.714;2022-12-07T11:36:36;4.60;;;0.65;;
38312;SDS011;24114;52.260;6.714;2022-12-07T11:39:09;4.47;;;0.73;;
38312;SDS011;24114;52.260;6.714;2022-12-07T11:41:43;5.15;;;0.60;;
38312;SDS011;24114;52.260;6.714;2022-12-07T11:44:17;4.68;;;0.70;;
38312;SDS011;24114;52.260;6.714;2022-12-07T11:46:55;7.05;;;0.93;;
38312;SDS011;24114;52.260;6.714;2022-12-07T11:49:27;5.15;;;1.00;;
38312;SDS011;24114;52.260;6.714;2022-12-07T11:52:04;5.13;;;0.60;;
38312;SDS011;24114;52.260;6.714;2022-12-07T11:54:34;4.13;;;0.70;;
38312;SDS011;24114;52.260;6.714;2022-12-07T11:57:04;9.77;;;0.93;;
38312;SDS011;24114;52.260;6.714;2022-12-07T11:59:45;5.40;;;0.80;;
38312;SDS011;24114;52.260;6.714;2022-12-07T12:02:18;5.53;;;0.60;;
38312;SDS011;24114;52.260;6.714;2022-12-07T12:04:51;5.00;;;0.70;;
38312;SDS011;24114;52.260;6.714;2022-12-07T12:07:22;3.53;;;0.53;;
38312;SDS011;24114;52.260;6.714;2022-12-07T12:10:16;4.07;;;0.82;;
38312;SDS011;24114;52.260;6.714;2022-12-07T12:12:52;7.60;;;0.70;;
38312;SDS011;24114;52.260;6.714;2022-12-07T12:16:10;7.63;;;1.77;;
38312;SDS011;24114;52.260;6.714;2022-12-07T12:18:54;6.88;;;1.00;;
38312;SDS011;24114;52.260;6.714;2022-12-07T12:21:29;8.25;;;1.02;;
38312;SDS011;24114;52.260;6.714;2022-12-07T12:23:59;6.05;;;0.93;;
38312;SDS011;24114;52.260;6.714;2022-12-07T12:26:29;4.73;;;1.03;;
38312;SDS011;24114;52.260;6.714;2022-12-07T12:28:59;7.15;;;0.90;;
38312;SDS011;24114;52.260;6.714;2022-12-07T12:31:34;5.30;;;0.63;;
38312;SDS011;24114;52.260;6.714;2022-12-07T12:36:59;4.65;;;0.60;;
38312;SDS011;24114;52.260;6.714;2022-12-07T12:39:27;3.92;;;1.00;;
38312;SDS011;24114;52.260;6.714;2022-12-07T12:41:56;3.55;;;0.77;;
38312;SDS011;24114;52.260;6.714;2022-12-07T12:44:40;3.45;;;0.55;;
38312;SDS011;24114;52.260;6.714;2022-12-07T12:50:23;5.60;;;0.80;;
38312;SDS011;24114;52.260;6.714;2022-12-07T12:52:53;3.92;;;1.13;;
38312;SDS011;24114;52.260;6.714;2022-12-07T12:58:43;6.47;;;1.27;;
38312;SDS011;24114;52.260;6.714;2022-12-07T13:10:29;6.40;;;2.07;;
38312;SDS011;24114;52.260;6.714;2022-12-07T13:13:03;5.37;;;1.53;;
38312;SDS011;24114;52.260;6.714;2022-12-07T13:15:33;5.82;;;1.42;;
38312;SDS011;24114;52.260;6.714;2022-12-07T13:18:21;4.45;;;1.08;;
38312;SDS011;24114;52.260;6.714;2022-12-07T13:20:53;6.73;;;1.40;;
38312;SDS011;24114;52.260;6.714;2022-12-07T13:23:25;6.28;;;1.13;;
38312;SDS011;24114;52.260;6.714;2022-12-07T13:25:56;5.53;;;1.13;;
38312;SDS011;24114;52.260;6.714;2022-12-07T13:28:32;5.32;;;0.82;;
38312;SDS011;24114;52.260;6.714;2022-12-07T13:31:09;5.65;;;0.98;;
38312;SDS011;24114;52.260;6.714;2022-12-07T13:33:42;8.38;;;2.00;;
38312;SDS011;24114;52.260;6.714;2022-12-07T13:36:14;6.80;;;2.58;;
38312;SDS011;24114;52.260;6.714;2022-12-07T13:38:51;8.57;;;1.92;;
38312;SDS011;24114;52.260;6.714;2022-12-07T13:41:21;5.70;;;1.15;;
38312;SDS011;24114;52.260;6.714;2022-12-07T13:43:50;6.57;;;1.73;;
38312;SDS011;24114;52.260;6.714;2022-12-07T13:46:22;7.47;;;1.90;;
38312;SDS011;24114;52.260;6.714;2022-12-07T13:48:53;9.27;;;1.63;;
38312;SDS011;24114;52.260;6.714;2022-12-07T13:51:22;7.22;;;1.60;;
38312;SDS011;24114;52.260;6.714;2022-12-07T13:53:53;6.90;;;2.20;;
38312;SDS011;24114;52.260;6.714;2022-12-07T13:56:25;8.43;;;2.42;;
38312;SDS011;24114;52.260;6.714;2022-12-07T13:58:56;7.22;;;2.85;;
38312;SDS011;24114;52.260;6.714;2022-12-07T14:01:23;4.93;;;1.90;;
38312;SDS011;24114;52.260;6.714;2022-12-07T14:03:51;6.83;;;2.27;;
38312;SDS011;24114;52.260;6.714;2022-12-07T14:06:21;6.07;;;1.77;;
38312;SDS011;24114;52.260;6.714;2022-12-07T14:09:07;7.87;;;1.53;;
38312;SDS011;24114;52.260;6.714;2022-12-07T14:11:36;6.10;;;1.30;;
38312;SDS011;24114;52.260;6.714;2022-12-07T14:14:04;5.82;;;0.90;;
38312;SDS011;24114;52.260;6.714;2022-12-07T14:16:33;5.85;;;1.10;;
38312;SDS011;24114;52.260;6.714;2022-12-07T14:19:02;5.72;;;1.13;;
38312;SDS011;24114;52.260;6.714;2022-12-07T14:21:32;7.43;;;1.27;;
38312;SDS011;24114;52.260;6.714;2022-12-07T14:24:14;6.90;;;1.35;;
38312;SDS011;24114;52.260;6.714;2022-12-07T14:26:43;4.83;;;0.80;;
38312;SDS011;24114;52.260;6.714;2022-12-07T14:29:19;6.30;;;1.30;;
38312;SDS011;24114;52.260;6.714;2022-12-07T14:31:48;6.20;;;0.73;;
38312;SDS011;24114;52.260;6.714;2022-12-07T14:34:16;6.15;;;1.05;;
38312;SDS011;24114;52.260;6.714;2022-12-07T14:36:44;7.05;;;0.85;;
38312;SDS011;24114;52.260;6.714;2022-12-07T14:39:13;4.93;;;0.95;;
38312;SDS011;24114;52.260;6.714;2022-12-07T14:41:40;8.88;;;1.40;;
38312;SDS011;24114;52.260;6.714;2022-12-07T14:44:18;5.53;;;1.10;;
38312;SDS011;24114;52.260;6.714;2022-12-07T14:46:50;4.27;;;0.87;;
38312;SDS011;24114;52.260;6.714;2022-12-07T14:49:38;9.25;;;1.23;;
38312;SDS011;24114;52.260;6.714;2022-12-07T14:52:06;6.20;;;1.00;;
38312;SDS011;24114;52.260;6.714;2022-12-07T14:55:01;4.25;;;0.90;;
38312;SDS011;24114;52.260;6.714;2022-12-07T14:57:29;6.13;;;1.10;;
38312;SDS011;24114;52.260;6.714;2022-12-07T14:59:57;4.97;;;0.80;;
38312;SDS011;24114;52.260;6.714;2022-12-07T15:02:24;6.90;;;0.70;;
38312;SDS011;24114;52.260;6.714;2022-12-07T15:04:52;3.78;;;0.70;;
38312;SDS011;24114;52.260;6.714;2022-12-07T15:07:20;3.60;;;0.60;;
38312;SDS011;24114;52.260;6.714;2022-12-07T15:09:48;4.47;;;0.98;;
38312;SDS011;24114;52.260;6.714;2022-12-07T15:12:17;6.95;;;2.10;;
38312;SDS011;24114;52.260;6.714;2022-12-07T15:14:45;5.22;;;1.20;;
38312;SDS011;24114;52.260;6.714;2022-12-07T15:17:13;9.57;;;1.20;;
38312;SDS011;24114;52.260;6.714;2022-12-07T15:19:56;5.38;;;0.80;;
38312;SDS011;24114;52.260;6.714;2022-12-07T15:22:24;4.05;;;0.80;;
38312;SDS011;24114;52.260;6.714;2022-12-07T15:24:52;4.60;;;0.70;;
38312;SDS011;24114;52.260;6.714;2022-12-07T15:27:22;6.73;;;1.20;;
38312;SDS011;24114;52.260;6.714;2022-12-07T15:29:49;5.70;;;1.50;;
38312;SDS011;24114;52.260;6.714;2022-12-07T15:32:17;7.45;;;2.25;;
38312;SDS011;24114;52.260;6.714;2022-12-07T15:34:45;7.15;;;2.58;;
38312;SDS011;24114;52.260;6.714;2022-12-07T15:37:13;5.95;;;2.40;;